Time;durP1;ratioP1;P1;durP2;ratioP2;P2;SDS_P1;SDS_P2;PMS_P1;PMS_P2;Temp;Humidity;BMP_temperature;BMP_pressure;BME280_temperature;BME280_humidity;BME280_pressure;Samples;Min_cycle;Max_cycle;Signal;HPM_P1;HPM_P2
2023/04/19 00:00:22;;;;;;;7.67;5.17;;;14.20;56.20;;;;;;5067453;28;20550;-85
2023/04/19 00:02:49;;;;;;;8.20;5.57;;;14.30;56.30;;;;;;5078825;28;20473;-86
2023/04/19 00:05:17;;;;;;;8.03;5.53;;;14.20;56.10;;;;;;5069206;28;20455;-83
2023/04/19 00:07:44;;;;;;;10.57;5.80;;;14.30;56.10;;;;;;5097113;27;20439;-84
2023/04/19 00:10:11;;;;;;;6.90;5.30;;;14.30;55.90;;;;;;5096277;28;20446;-85
2023/04/19 00:12:39;;;;;;;11.03;6.20;;;14.10;56.40;;;;;;5083736;28;20459;-85
2023/04/19 00:15:08;;;;;;;8.00;5.90;;;14.00;56.70;;;;;;5071413;28;20874;-85
2023/04/19 00:17:35;;;;;;;6.63;5.20;;;13.80;56.60;;;;;;5077712;28;20446;-85
2023/04/19 00:20:04;;;;;;;7.80;5.50;;;13.90;57.10;;;;;;5078474;28;20453;-84
2023/04/19 00:22:31;;;;;;;7.13;5.20;;;14.00;56.90;;;;;;5098176;27;20570;-85
2023/04/19 00:24:58;;;;;;;7.87;5.63;;;14.00;56.80;;;;;;5099315;27;20435;-83
2023/04/19 00:27:25;;;;;;;11.20;5.70;;;14.20;56.50;;;;;;5100024;27;20444;-84
2023/04/19 00:29:54;;;;;;;7.40;5.20;;;14.20;55.80;;;;;;5091496;27;20450;-85
2023/04/19 00:32:21;;;;;;;6.60;5.00;;;14.10;56.10;;;;;;5098248;28;20842;-84
2023/04/19 00:34:48;;;;;;;9.10;6.00;;;14.20;56.00;;;;;;5045525;28;20450;-86
2023/04/19 00:37:15;;;;;;;8.50;5.13;;;14.10;56.10;;;;;;5058805;28;20982;-84
2023/04/19 00:39:42;;;;;;;6.87;5.20;;;14.00;56.40;;;;;;5084071;27;20444;-87
2023/04/19 00:42:09;;;;;;;8.43;5.20;;;13.80;57.30;;;;;;5076186;28;20641;-83
2023/04/19 00:44:36;;;;;;;8.00;5.57;;;14.00;57.00;;;;;;5095033;28;20957;-87
2023/04/19 00:47:05;;;;;;;7.13;5.60;;;14.10;56.40;;;;;;5087153;28;20452;-84
2023/04/19 00:49:32;;;;;;;8.57;5.07;;;14.30;56.20;;;;;;5093167;27;20885;-85
2023/04/19 00:51:59;;;;;;;6.73;4.93;;;14.50;56.00;;;;;;5069910;28;20499;-84
2023/04/19 00:54:27;;;;;;;7.27;5.40;;;14.80;55.70;;;;;;5063722;28;20527;-84
2023/04/19 00:56:54;;;;;;;8.60;6.60;;;14.70;55.00;;;;;;5051218;28;20963;-85
2023/04/19 00:59:22;;;;;;;9.97;6.57;;;14.60;55.40;;;;;;5044007;28;20944;-86
2023/04/19 01:01:49;;;;;;;6.80;5.63;;;14.70;55.20;;;;;;5062988;28;20478;-84
2023/04/19 01:04:18;;;;;;;7.17;5.37;;;14.50;55.70;;;;;;5080818;28;20451;-83
2023/04/19 01:06:47;;;;;;;7.03;5.30;;;14.70;55.80;;;;;;5047386;27;20937;-84
2023/04/19 01:09:14;;;;;;;6.33;5.43;;;14.80;55.40;;;;;;5045828;28;20443;-84
2023/04/19 01:11:41;;;;;;;9.13;6.87;;;14.40;55.80;;;;;;5043845;28;20444;-85
2023/04/19 01:14:08;;;;;;;9.40;5.27;;;14.50;55.90;;;;;;5097719;27;20500;-85
2023/04/19 01:16:36;;;;;;;8.57;5.93;;;14.60;55.90;;;;;;5062645;28;20540;-86
2023/04/19 01:19:03;;;;;;;7.97;5.63;;;14.40;56.20;;;;;;5074427;28;20450;-84
2023/04/19 01:21:32;;;;;;;8.40;5.70;;;14.40;56.40;;;;;;5053580;28;20546;-84
2023/04/19 01:24:00;;;;;;;8.03;6.00;;;14.40;56.50;;;;;;5074484;28;20471;-85
2023/04/19 01:26:27;;;;;;;9.70;6.53;;;14.60;56.20;;;;;;5048199;28;20448;-84
2023/04/19 01:28:54;;;;;;;7.77;6.27;;;14.60;55.60;;;;;;5062363;28;20446;-85
2023/04/19 01:31:21;;;;;;;10.00;6.27;;;14.40;56.30;;;;;;5052732;28;20450;-85
2023/04/19 01:33:48;;;;;;;10.00;6.03;;;14.40;56.30;;;;;;5108223;27;20467;-85
2023/04/19 01:36:15;;;;;;;7.80;5.70;;;14.20;57.00;;;;;;5045352;28;20458;-85
2023/04/19 01:38:46;;;;;;;11.63;7.00;;;14.30;56.90;;;;;;5065280;28;20444;-85
2023/04/19 01:41:15;;;;;;;10.43;6.53;;;14.30;56.70;;;;;;5096773;28;20471;-85
2023/04/19 01:43:42;;;;;;;8.83;7.10;;;14.10;57.10;;;;;;5084403;28;20482;-84
2023/04/19 01:46:09;;;;;;;9.57;7.03;;;14.00;57.30;;;;;;5092521;28;20483;-86
2023/04/19 01:48:38;;;;;;;9.63;6.10;;;14.00;57.40;;;;;;5059482;28;20547;-85
2023/04/19 01:51:05;;;;;;;11.83;8.17;;;13.90;57.50;;;;;;5093845;27;20456;-87
2023/04/19 01:53:34;;;;;;;10.30;6.83;;;13.80;57.80;;;;;;5076617;28;20504;-86
2023/04/19 01:56:01;;;;;;;9.60;6.03;;;13.90;58.20;;;;;;5072007;28;20444;-85
2023/04/19 01:58:30;;;;;;;10.27;7.13;;;14.00;57.80;;;;;;5072515;28;20436;-85
2023/04/19 02:00:57;;;;;;;12.47;6.60;;;14.00;57.80;;;;;;5101214;27;21054;-85
2023/04/19 02:03:25;;;;;;;10.50;6.40;;;14.00;58.00;;;;;;5100158;27;20466;-85
2023/04/19 02:05:52;;;;;;;9.73;6.53;;;13.90;58.10;;;;;;5050092;27;20819;-84
2023/04/19 02:08:22;;;;;;;11.47;7.60;;;14.00;58.00;;;;;;5094062;27;20523;-84
2023/04/19 02:10:49;;;;;;;9.73;6.50;;;13.90;58.20;;;;;;5063766;28;20451;-84
2023/04/19 02:13:17;;;;;;;13.03;7.30;;;14.00;57.80;;;;;;5083865;28;20996;-85
2023/04/19 02:15:45;;;;;;;11.70;8.20;;;14.20;57.70;;;;;;5076873;28;20460;-84
2023/04/19 02:18:13;;;;;;;11.30;6.87;;;14.30;57.30;;;;;;5077480;28;20439;-84
2023/04/19 02:20:41;;;;;;;10.90;7.20;;;14.50;56.90;;;;;;5050128;28;20662;-84
2023/04/19 02:23:08;;;;;;;10.23;8.10;;;14.50;56.70;;;;;;5095535;28;20528;-86
2023/04/19 02:25:35;;;;;;;10.63;7.60;;;14.60;56.60;;;;;;5059259;28;21023;-85
2023/04/19 02:28:02;;;;;;;9.47;7.30;;;14.60;56.40;;;;;;5065045;28;20483;-84
2023/04/19 02:30:29;;;;;;;11.90;7.27;;;14.70;56.40;;;;;;5052852;28;20497;-84
2023/04/19 02:32:58;;;;;;;9.67;7.53;;;14.90;56.20;;;;;;5063404;28;22047;-86
2023/04/19 02:35:25;;;;;;;9.20;6.70;;;14.90;55.90;;;;;;5065940;28;20452;-85
2023/04/19 02:37:52;;;;;;;10.60;8.03;;;14.90;55.70;;;;;;5087113;28;20534;-85
2023/04/19 02:40:21;;;;;;;10.67;7.50;;;14.80;55.70;;;;;;5066786;28;20455;-86
2023/04/19 02:42:48;;;;;;;10.80;7.57;;;14.90;55.60;;;;;;5051718;28;20470;-84
2023/04/19 02:45:15;;;;;;;9.00;7.00;;;14.90;55.50;;;;;;5052557;28;20449;-83
2023/04/19 02:47:42;;;;;;;12.13;6.43;;;14.80;55.60;;;;;;5056846;28;20563;-84
2023/04/19 02:50:11;;;;;;;10.00;6.80;;;14.90;55.70;;;;;;5051440;28;20964;-85
2023/04/19 02:52:44;;;;;;;10.93;7.03;;;14.90;55.80;;;;;;5083943;28;20458;-85
2023/04/19 02:55:11;;;;;;;12.70;6.73;;;14.90;55.80;;;;;;5070014;28;20516;-85
2023/04/19 02:57:39;;;;;;;8.70;6.80;;;14.90;55.70;;;;;;5063031;28;20443;-84
2023/04/19 03:00:10;;;;;;;11.07;7.27;;;14.80;55.90;;;;;;5077115;28;21055;-84
2023/04/19 03:02:39;;;;;;;11.63;7.57;;;14.70;56.10;;;;;;5068050;28;20475;-85
2023/04/19 03:05:07;;;;;;;10.17;6.90;;;14.50;56.30;;;;;;5076126;28;20459;-85
2023/04/19 03:07:36;;;;;;;14.83;7.63;;;14.50;56.60;;;;;;5068895;28;20452;-85
2023/04/19 03:10:03;;;;;;;13.23;8.00;;;14.40;57.20;;;;;;5062695;28;20811;-85
2023/04/19 03:12:31;;;;;;;13.03;8.13;;;14.40;56.90;;;;;;5094170;28;20480;-83
2023/04/19 03:14:58;;;;;;;9.63;7.40;;;14.50;57.00;;;;;;5109415;27;20508;-85
2023/04/19 03:17:26;;;;;;;10.93;7.13;;;14.60;57.00;;;;;;5081106;28;20447;-86
2023/04/19 03:19:54;;;;;;;9.13;6.20;;;14.50;56.80;;;;;;5043688;28;20455;-83
2023/04/19 03:22:21;;;;;;;10.27;6.63;;;14.60;56.80;;;;;;5081624;28;20475;-86
2023/04/19 03:24:49;;;;;;;9.60;6.30;;;14.80;56.50;;;;;;5043211;28;20447;-83
2023/04/19 03:27:21;;;;;;;15.60;7.47;;;14.70;56.60;;;;;;5049294;28;20443;-85
2023/04/19 03:29:55;;;;;;;9.13;7.10;;;14.40;57.20;;;;;;5069424;28;20883;-85
2023/04/19 03:32:22;;;;;;;11.50;7.77;;;14.60;57.20;;;;;;5097681;27;20509;-86
2023/04/19 03:34:50;;;;;;;9.87;6.80;;;14.80;57.20;;;;;;5064128;27;20458;-85
2023/04/19 03:37:17;;;;;;;12.43;7.27;;;14.90;57.10;;;;;;5056743;28;20971;-87
2023/04/19 03:39:44;;;;;;;8.60;7.50;;;14.80;56.70;;;;;;5063191;27;20456;-82
2023/04/19 03:42:16;;;;;;;19.83;7.87;;;14.90;56.60;;;;;;5079553;28;20482;-87
2023/04/19 03:45:13;;;;;;;9.20;7.57;;;15.00;56.50;;;;;;5086295;27;21155;-83
2023/04/19 03:47:45;;;;;;;9.00;6.83;;;15.10;56.00;;;;;;5048466;27;20447;-86
2023/04/19 03:50:12;;;;;;;8.60;6.80;;;15.10;56.10;;;;;;5071225;28;20450;-85
2023/04/19 03:52:42;;;;;;;11.10;7.50;;;15.00;56.20;;;;;;5081883;28;20461;-83
2023/04/19 03:55:12;;;;;;;8.97;6.63;;;15.00;56.40;;;;;;5060488;28;20777;-84
2023/04/19 03:57:42;;;;;;;10.73;7.40;;;15.10;56.40;;;;;;5086743;28;20504;-85
2023/04/19 04:00:17;;;;;;;9.63;6.87;;;15.20;56.60;;;;;;5080269;28;20820;-86
2023/04/19 04:02:49;;;;;;;11.40;7.03;;;15.20;56.50;;;;;;5067360;28;20561;-84
2023/04/19 04:05:16;;;;;;;10.63;7.30;;;15.30;56.60;;;;;;5068146;28;20456;-84
2023/04/19 04:07:43;;;;;;;12.17;8.30;;;15.30;56.40;;;;;;5092392;28;20448;-83
2023/04/19 04:10:11;;;;;;;10.47;7.20;;;15.20;56.00;;;;;;5071718;28;20466;-86
2023/04/19 04:12:43;;;;;;;14.83;6.93;;;15.20;56.50;;;;;;5076173;28;20474;-84
2023/04/19 04:15:14;;;;;;;10.93;6.93;;;15.20;56.50;;;;;;5072159;28;20448;-86
2023/04/19 04:17:47;;;;;;;10.37;8.03;;;15.10;56.40;;;;;;5080072;28;20536;-85
2023/04/19 04:20:15;;;;;;;12.23;7.87;;;15.10;56.60;;;;;;5077604;28;20472;-86
2023/04/19 04:22:44;;;;;;;11.37;7.40;;;15.20;56.60;;;;;;5061286;28;20483;-85
2023/04/19 04:25:14;;;;;;;16.10;6.93;;;15.10;56.60;;;;;;5074638;28;20452;-84
2023/04/19 04:27:43;;;;;;;10.83;6.90;;;15.10;56.60;;;;;;5094142;27;20465;-86
2023/04/19 04:30:14;;;;;;;9.80;7.77;;;15.10;56.80;;;;;;5049123;28;20452;-86
2023/04/19 04:32:42;;;;;;;9.47;8.20;;;15.00;56.80;;;;;;5068013;28;21145;-85
2023/04/19 04:35:11;;;;;;;10.97;8.17;;;15.10;56.90;;;;;;5062321;28;20503;-86
2023/04/19 04:37:47;;;;;;;11.10;7.57;;;15.20;57.00;;;;;;5060738;28;20451;-84
2023/04/19 04:40:14;;;;;;;11.83;8.00;;;15.20;56.80;;;;;;5061153;28;21015;-85
2023/04/19 04:42:44;;;;;;;10.03;7.50;;;15.30;56.90;;;;;;5058316;28;20497;-84
2023/04/19 04:45:11;;;;;;;10.60;7.33;;;15.30;57.20;;;;;;5072574;28;20509;-86
2023/04/19 04:47:45;;;;;;;10.93;6.80;;;15.30;56.90;;;;;;5108766;27;20465;-85
2023/04/19 04:50:12;;;;;;;11.80;8.07;;;15.30;57.20;;;;;;5084621;28;20899;-86
2023/04/19 04:52:39;;;;;;;11.83;7.80;;;15.30;57.40;;;;;;5109236;27;20504;-85
2023/04/19 04:55:11;;;;;;;10.83;7.73;;;15.30;57.60;;;;;;5084201;28;20444;-87
2023/04/19 04:57:44;;;;;;;13.60;7.87;;;15.30;57.30;;;;;;5075120;28;20440;-85
2023/04/19 05:00:32;;;;;;;11.67;7.97;;;15.30;57.40;;;;;;5091390;28;20455;-86
2023/04/19 05:03:03;;;;;;;12.53;7.50;;;15.30;57.60;;;;;;5079243;28;20614;-84
2023/04/19 05:05:33;;;;;;;10.37;7.87;;;15.30;57.70;;;;;;5069143;28;20469;-87
2023/04/19 05:08:00;;;;;;;12.77;8.30;;;15.30;57.70;;;;;;5081484;28;20462;-85
2023/04/19 05:10:27;;;;;;;11.70;7.93;;;15.30;57.90;;;;;;5050084;28;20483;-83
2023/04/19 05:12:56;;;;;;;10.83;8.47;;;15.20;58.30;;;;;;5066737;28;20483;-87
2023/04/19 05:15:23;;;;;;;10.83;7.33;;;15.20;58.30;;;;;;5077061;28;20484;-85
2023/04/19 05:17:53;;;;;;;14.43;7.63;;;15.30;58.30;;;;;;5063117;27;21024;-85
2023/04/19 05:20:22;;;;;;;14.37;7.90;;;15.30;58.30;;;;;;5080103;28;20825;-85
2023/04/19 05:22:57;;;;;;;12.47;7.40;;;15.30;58.20;;;;;;5072030;28;20470;-86
2023/04/19 05:25:24;;;;;;;12.10;8.23;;;15.40;58.30;;;;;;5058290;28;20484;-85
2023/04/19 05:27:51;;;;;;;13.97;9.97;;;15.30;58.30;;;;;;5073161;27;20529;-85
2023/04/19 05:30:20;;;;;;;9.80;7.63;;;15.20;58.60;;;;;;5055640;28;20893;-86
2023/04/19 05:32:47;;;;;;;14.57;8.80;;;15.20;58.90;;;;;;5108450;27;20464;-86
2023/04/19 05:35:15;;;;;;;15.60;9.73;;;15.10;58.90;;;;;;5082756;28;20484;-86
2023/04/19 05:37:44;;;;;;;16.33;9.07;;;14.90;59.40;;;;;;5082462;28;20444;-84
2023/04/19 05:40:12;;;;;;;11.67;7.97;;;14.90;59.50;;;;;;5059110;28;20964;-84
2023/04/19 05:42:39;;;;;;;14.90;9.90;;;15.10;59.50;;;;;;5090113;27;20471;-86
2023/04/19 05:45:07;;;;;;;15.50;8.70;;;15.10;59.20;;;;;;5086955;27;20450;-85
2023/04/19 05:47:36;;;;;;;12.37;8.30;;;15.10;59.30;;;;;;5091327;28;20443;-85
2023/04/19 05:50:23;;;;;;;10.73;7.13;;;15.00;59.70;;;;;;5047041;28;20481;-87
2023/04/19 05:53:19;;;;;;;12.03;8.13;;;15.10;59.60;;;;;;5105201;27;20467;-85
2023/04/19 05:55:49;;;;;;;20.60;9.43;;;15.10;59.30;;;;;;5083190;28;20451;-85
2023/04/19 05:58:16;;;;;;;9.90;7.37;;;15.10;59.40;;;;;;5073929;28;20497;-83
2023/04/19 06:00:44;;;;;;;13.13;8.50;;;15.10;59.50;;;;;;5056353;28;20473;-83
2023/04/19 06:03:15;;;;;;;12.20;9.17;;;15.10;59.70;;;;;;5062850;28;20484;-85
2023/04/19 06:05:42;;;;;;;13.20;9.17;;;15.20;59.50;;;;;;5065579;28;20831;-85
2023/04/19 06:08:10;;;;;;;13.60;8.73;;;15.20;59.40;;;;;;5082504;28;21923;-87
2023/04/19 06:10:37;;;;;;;16.03;8.60;;;15.20;59.20;;;;;;5060275;28;20461;-83
2023/04/19 06:13:04;;;;;;;13.07;9.00;;;15.20;59.20;;;;;;5087710;28;21060;-87
2023/04/19 06:15:32;;;;;;;12.90;8.53;;;15.10;59.50;;;;;;5073437;28;20447;-84
2023/04/19 06:17:59;;;;;;;14.20;9.00;;;15.20;58.80;;;;;;5090816;28;20478;-86
2023/04/19 06:20:27;;;;;;;13.50;9.20;;;14.60;59.30;;;;;;5065433;28;21037;-85
2023/04/19 06:22:54;;;;;;;13.57;8.23;;;14.60;60.00;;;;;;5088029;28;20564;-86
2023/04/19 06:25:21;;;;;;;10.13;8.13;;;14.60;59.80;;;;;;5105279;27;21062;-85
2023/04/19 06:27:48;;;;;;;13.17;8.93;;;14.70;59.90;;;;;;5080724;28;20812;-85
2023/04/19 06:30:16;;;;;;;16.83;8.77;;;14.50;59.90;;;;;;5090597;28;20940;-84
2023/04/19 06:32:43;;;;;;;12.43;9.43;;;14.40;60.60;;;;;;5074960;28;20483;-85
2023/04/19 06:35:10;;;;;;;12.77;9.03;;;14.40;60.10;;;;;;5078370;28;20862;-86
2023/04/19 06:37:38;;;;;;;18.90;8.83;;;14.60;60.20;;;;;;5047346;28;21115;-85
2023/04/19 06:40:07;;;;;;;10.43;8.10;;;14.80;59.60;;;;;;5081082;28;21034;-84
2023/04/19 06:42:34;;;;;;;13.23;8.73;;;14.90;59.60;;;;;;5049828;28;20472;-85
2023/04/19 06:45:01;;;;;;;11.60;8.70;;;14.80;58.60;;;;;;5073537;28;20541;-84
2023/04/19 06:47:29;;;;;;;17.43;10.60;;;14.60;58.70;;;;;;5089156;28;20443;-84
2023/04/19 06:49:57;;;;;;;11.00;8.60;;;14.60;59.10;;;;;;5071664;28;20482;-84
2023/04/19 06:52:24;;;;;;;16.10;9.80;;;14.60;58.50;;;;;;5089953;28;20901;-86
2023/04/19 06:54:52;;;;;;;15.17;9.30;;;14.40;59.00;;;;;;5090255;28;20458;-83
2023/04/19 06:57:19;;;;;;;12.43;9.03;;;14.50;59.10;;;;;;5073159;28;20484;-85
2023/04/19 06:59:47;;;;;;;12.77;8.90;;;14.60;59.20;;;;;;5070993;28;21397;-86
2023/04/19 07:02:14;;;;;;;12.90;8.70;;;14.70;58.40;;;;;;5062817;28;20479;-83
2023/04/19 07:04:41;;;;;;;17.33;10.73;;;14.70;58.40;;;;;;5071207;28;20452;-88
2023/04/19 07:07:08;;;;;;;12.70;9.83;;;14.80;58.50;;;;;;5072289;28;20537;-85
2023/04/19 07:09:35;;;;;;;15.27;9.50;;;15.00;58.20;;;;;;5075524;28;20542;-84
2023/04/19 07:12:04;;;;;;;11.20;8.17;;;14.90;57.10;;;;;;5072606;28;20482;-85
2023/04/19 07:14:31;;;;;;;13.90;9.70;;;14.80;57.20;;;;;;5070544;28;20467;-84
2023/04/19 07:16:58;;;;;;;11.23;8.53;;;14.80;57.60;;;;;;5090914;28;21005;-85
2023/04/19 07:19:27;;;;;;;14.53;9.67;;;14.50;57.50;;;;;;5078790;28;21023;-84
2023/04/19 07:21:54;;;;;;;13.90;9.20;;;14.40;57.80;;;;;;5088814;28;20455;-85
2023/04/19 07:24:22;;;;;;;15.03;9.60;;;14.40;58.00;;;;;;5091028;28;20870;-85
2023/04/19 07:26:49;;;;;;;14.53;9.47;;;14.70;58.00;;;;;;5063717;28;20844;-84
2023/04/19 07:29:17;;;;;;;17.50;10.30;;;14.70;57.50;;;;;;5059551;28;20444;-83
2023/04/19 07:31:44;;;;;;;14.77;8.60;;;14.80;57.70;;;;;;5065229;28;20486;-84
2023/04/19 07:34:11;;;;;;;14.33;9.23;;;15.00;57.20;;;;;;5069357;28;21234;-88
2023/04/19 07:36:38;;;;;;;11.00;8.37;;;15.00;56.80;;;;;;5088994;28;20899;-83
2023/04/19 07:39:05;;;;;;;12.90;7.67;;;15.00;56.40;;;;;;5090522;28;20450;-85
2023/04/19 07:41:32;;;;;;;14.73;7.63;;;15.00;56.10;;;;;;5074640;28;20513;-84
2023/04/19 07:44:00;;;;;;;11.13;7.77;;;15.10;55.20;;;;;;5096094;27;20589;-85
2023/04/19 07:46:28;;;;;;;11.27;7.10;;;15.10;55.00;;;;;;5055426;28;20838;-85
2023/04/19 07:48:55;;;;;;;11.83;7.10;;;14.90;54.50;;;;;;5093410;27;21087;-86
2023/04/19 07:51:23;;;;;;;11.90;7.00;;;15.00;54.90;;;;;;5097459;27;20464;-85
2023/04/19 07:53:50;;;;;;;10.70;6.70;;;14.70;53.90;;;;;;5094854;27;20471;-84
2023/04/19 07:56:18;;;;;;;7.20;6.07;;;14.60;54.00;;;;;;5093738;28;20525;-82
2023/04/19 07:58:45;;;;;;;9.43;6.07;;;14.60;53.50;;;;;;5058412;28;20436;-84
2023/04/19 08:01:13;;;;;;;9.50;6.57;;;14.70;54.20;;;;;;5065234;28;21024;-85
2023/04/19 08:03:41;;;;;;;9.03;6.50;;;14.90;54.10;;;;;;5074416;28;20471;-86
2023/04/19 08:06:08;;;;;;;8.73;6.20;;;14.90;52.70;;;;;;5092071;27;20652;-85
2023/04/19 08:08:36;;;;;;;9.03;5.60;;;14.80;52.80;;;;;;5076048;28;20446;-84
2023/04/19 08:11:03;;;;;;;9.03;6.40;;;14.80;52.80;;;;;;5091833;27;20450;-86
2023/04/19 08:13:30;;;;;;;6.50;5.40;;;14.80;52.20;;;;;;5093677;27;20465;-84
2023/04/19 08:15:58;;;;;;;9.80;6.73;;;14.90;53.00;;;;;;5107707;27;20530;-85
2023/04/19 08:18:25;;;;;;;9.37;5.73;;;15.00;52.50;;;;;;5092571;28;20447;-84
2023/04/19 08:20:55;;;;;;;8.47;6.70;;;15.20;52.30;;;;;;5081682;28;20930;-83
2023/04/19 08:23:22;;;;;;;6.40;5.60;;;15.40;51.30;;;;;;5109948;27;20557;-83
2023/04/19 08:25:49;;;;;;;6.83;5.20;;;15.50;51.10;;;;;;5094137;27;20444;-84
2023/04/19 08:28:17;;;;;;;8.93;6.60;;;15.40;50.90;;;;;;5093459;28;20434;-84
2023/04/19 08:30:44;;;;;;;8.43;6.27;;;15.30;51.10;;;;;;5083876;28;20448;-86
2023/04/19 08:33:11;;;;;;;8.23;5.60;;;15.30;51.30;;;;;;5073327;28;20497;-85
2023/04/19 08:35:39;;;;;;;7.60;5.13;;;15.30;51.00;;;;;;5053703;28;20459;-86
2023/04/19 08:38:08;;;;;;;7.10;5.40;;;15.50;51.50;;;;;;5090716;28;20539;-84
2023/04/19 08:40:35;;;;;;;6.17;4.93;;;15.60;50.60;;;;;;5064817;28;20448;-84
2023/04/19 08:43:06;;;;;;;7.00;4.90;;;15.50;50.70;;;;;;5072824;28;20484;-84
2023/04/19 08:45:34;;;;;;;12.80;4.93;;;15.20;51.30;;;;;;5067092;28;20499;-84
2023/04/19 08:48:02;;;;;;;7.30;5.23;;;15.00;52.00;;;;;;5088488;27;20551;-84
2023/04/19 08:50:30;;;;;;;5.57;4.50;;;14.90;51.90;;;;;;5087626;28;20451;-85
2023/04/19 08:52:59;;;;;;;7.90;4.87;;;14.90;51.90;;;;;;5076030;28;20461;-83
2023/04/19 08:55:28;;;;;;;8.50;6.40;;;15.00;52.40;;;;;;5074182;28;20517;-82
2023/04/19 08:57:56;;;;;;;7.10;5.63;;;15.20;51.40;;;;;;5091650;28;20527;-88
2023/04/19 09:00:24;;;;;;;5.70;4.80;;;15.10;51.30;;;;;;5105723;27;20684;-84
2023/04/19 09:02:53;;;;;;;5.90;4.80;;;15.20;50.90;;;;;;5094563;27;20972;-83
2023/04/19 09:05:20;;;;;;;6.30;5.50;;;15.30;50.50;;;;;;5051462;28;20522;-86
2023/04/19 09:07:47;;;;;;;9.20;5.10;;;15.20;51.30;;;;;;5091315;28;20546;-84
2023/04/19 09:10:16;;;;;;;6.67;5.63;;;15.50;51.70;;;;;;5056293;28;20440;-86
2023/04/19 09:13:01;;;;;;;12.83;5.70;;;15.30;50.80;;;;;;5091883;28;20944;-84
2023/04/19 09:15:38;;;;;;;7.93;5.70;;;15.30;51.20;;;;;;5085037;28;20534;-85
2023/04/19 09:18:06;;;;;;;5.63;4.70;;;15.10;50.60;;;;;;5081142;28;20479;-83
2023/04/19 09:20:37;;;;;;;9.87;4.63;;;15.20;50.80;;;;;;5047264;28;20457;-84
2023/04/19 09:23:06;;;;;;;6.47;4.87;;;15.20;50.30;;;;;;5089051;27;20998;-85
2023/04/19 09:25:34;;;;;;;5.20;4.30;;;15.30;50.20;;;;;;5071480;28;20451;-84
2023/04/19 09:28:11;;;;;;;5.43;4.70;;;15.60;50.40;;;;;;5105447;27;20790;-84
2023/04/19 09:30:39;;;;;;;8.70;4.90;;;15.80;49.70;;;;;;5039720;28;20487;-85
2023/04/19 09:33:07;;;;;;;4.70;4.00;;;16.00;49.60;;;;;;5072242;27;20556;-85
2023/04/19 09:35:41;;;;;;;9.30;4.67;;;16.20;49.00;;;;;;5088390;27;20694;-86
2023/04/19 09:38:09;;;;;;;4.97;4.20;;;16.20;50.10;;;;;;5071075;28;20484;-83
2023/04/19 09:40:37;;;;;;;5.83;4.67;;;16.30;48.60;;;;;;5105257;27;20519;-86
2023/04/19 09:43:04;;;;;;;5.47;4.30;;;16.40;49.20;;;;;;5090688;27;20487;-86
2023/04/19 09:45:42;;;;;;;7.27;4.90;;;16.40;48.50;;;;;;5071704;28;20444;-84
2023/04/19 09:48:10;;;;;;;5.50;4.60;;;16.50;48.80;;;;;;5057561;27;20570;-85
2023/04/19 09:50:51;;;;;;;6.20;4.47;;;16.40;48.70;;;;;;5071346;28;20456;-86
2023/04/19 09:53:18;;;;;;;6.23;5.10;;;16.40;48.40;;;;;;5041131;28;20468;-84
2023/04/19 09:55:46;;;;;;;8.70;4.80;;;16.50;49.20;;;;;;5090970;28;20530;-86
2023/04/19 09:58:13;;;;;;;5.33;4.50;;;16.50;47.60;;;;;;5092229;27;20443;-86
2023/04/19 10:00:44;;;;;;;5.30;3.97;;;16.20;47.80;;;;;;5080962;28;20444;-84
2023/04/19 10:03:12;;;;;;;7.77;4.40;;;16.20;47.90;;;;;;5088197;27;20459;-85
2023/04/19 10:05:40;;;;;;;6.87;4.10;;;16.20;47.40;;;;;;5088882;28;20881;-84
2023/04/19 10:08:08;;;;;;;5.73;3.93;;;15.90;46.30;;;;;;5089955;27;20439;-83
2023/04/19 10:10:36;;;;;;;5.30;4.43;;;15.60;47.40;;;;;;5072815;28;20455;-84
2023/04/19 10:13:06;;;;;;;5.13;4.13;;;15.50;47.30;;;;;;5088087;28;20969;-84
2023/04/19 10:15:36;;;;;;;5.43;4.60;;;15.40;48.00;;;;;;5089950;27;20458;-84
2023/04/19 10:18:05;;;;;;;4.93;3.70;;;15.40;47.90;;;;;;5074243;27;20802;-84
2023/04/19 10:20:39;;;;;;;3.70;3.40;;;15.60;48.30;;;;;;5091170;28;20451;-84
2023/04/19 10:23:08;;;;;;;9.10;5.00;;;15.60;46.90;;;;;;5062245;28;20472;-86
2023/04/19 10:25:37;;;;;;;6.20;4.53;;;15.50;47.90;;;;;;5092329;28;20453;-85
2023/04/19 10:28:05;;;;;;;5.77;4.90;;;15.70;47.10;;;;;;5102808;27;20448;-84
2023/04/19 10:30:32;;;;;;;6.20;4.80;;;15.60;46.70;;;;;;5087463;28;20451;-84
2023/04/19 10:33:01;;;;;;;6.10;4.00;;;15.60;47.10;;;;;;5079603;28;20470;-84
2023/04/19 10:35:36;;;;;;;6.23;4.77;;;15.50;46.10;;;;;;5092565;28;20443;-84
2023/04/19 10:38:11;;;;;;;5.03;4.00;;;15.40;46.10;;;;;;5089030;28;20457;-83
2023/04/19 10:40:56;;;;;;;4.77;4.27;;;15.40;47.00;;;;;;5089792;27;20450;-84
2023/04/19 10:43:24;;;;;;;7.63;4.30;;;15.40;46.00;;;;;;5105195;27;20570;-84
2023/04/19 10:45:52;;;;;;;5.07;4.00;;;15.50;46.50;;;;;;5089850;28;20941;-84
2023/04/19 10:48:40;;;;;;;6.10;4.40;;;15.50;45.70;;;;;;5087132;28;20458;-84
2023/04/19 10:51:14;;;;;;;4.60;3.50;;;15.20;46.10;;;;;;5089182;28;20554;-83
2023/04/19 10:54:00;;;;;;;5.90;4.30;;;15.40;46.40;;;;;;5090148;28;20498;-86
2023/04/19 10:56:59;;;;;;;6.13;3.83;;;15.40;45.90;;;;;;5092581;28;20457;-83
2023/04/19 10:59:26;;;;;;;23.87;4.60;;;15.80;46.10;;;;;;5081160;28;20455;-86
2023/04/19 11:01:56;;;;;;;5.13;4.50;;;16.40;45.60;;;;;;5069909;28;20481;-84
2023/04/19 11:05:00;;;;;;;7.83;4.20;;;17.10;44.40;;;;;;5081922;28;20665;-84
2023/04/19 11:07:28;;;;;;;7.50;4.30;;;17.40;43.40;;;;;;5089310;28;20458;-85
2023/04/19 11:09:55;;;;;;;5.13;4.10;;;17.00;42.90;;;;;;5054540;28;20471;-84
2023/04/19 11:12:22;;;;;;;10.03;6.00;;;16.80;43.00;;;;;;5092261;28;20956;-84
2023/04/19 11:14:52;;;;;;;9.20;5.60;;;16.90;43.80;;;;;;5074843;28;20471;-84
2023/04/19 11:17:24;;;;;;;5.80;4.60;;;17.50;43.80;;;;;;5092410;28;20454;-83
2023/04/19 11:19:55;;;;;;;9.50;5.63;;;17.70;41.90;;;;;;5092462;27;20450;-84
2023/04/19 11:22:31;;;;;;;8.77;6.20;;;17.30;41.60;;;;;;5093900;27;20463;-84
2023/04/19 11:25:08;;;;;;;4.50;4.07;;;17.10;42.60;;;;;;5092545;28;20471;-84
2023/04/19 11:27:36;;;;;;;12.80;7.73;;;17.40;40.90;;;;;;5111600;27;20458;-85
2023/04/19 11:30:05;;;;;;;7.53;4.80;;;17.70;40.00;;;;;;5092768;27;20447;-83
2023/04/19 11:32:32;;;;;;;6.20;4.57;;;18.10;40.30;;;;;;5062845;28;20566;-84
2023/04/19 11:35:05;;;;;;;6.10;4.17;;;18.40;39.90;;;;;;5079914;28;20439;-85
2023/04/19 11:37:34;;;;;;;5.47;4.97;;;18.00;40.50;;;;;;5063542;28;20482;-85
2023/04/19 11:40:01;;;;;;;6.13;3.93;;;18.00;41.30;;;;;;5093223;27;20444;-85
2023/04/19 11:42:28;;;;;;;7.90;5.50;;;17.90;40.90;;;;;;5095266;27;20841;-82
2023/04/19 11:44:57;;;;;;;9.00;5.03;;;18.00;40.60;;;;;;5064501;28;20497;-84
2023/04/19 11:47:24;;;;;;;5.60;4.80;;;18.30;38.60;;;;;;5093855;27;20524;-84
2023/04/19 11:49:51;;;;;;;6.80;4.43;;;18.20;39.20;;;;;;5091057;27;20459;-83
2023/04/19 11:52:23;;;;;;;7.50;3.93;;;18.40;38.70;;;;;;5106970;27;20481;-83
2023/04/19 11:54:52;;;;;;;6.17;3.97;;;18.80;38.90;;;;;;5085441;28;20458;-85
2023/04/19 11:57:29;;;;;;;5.60;3.57;;;18.50;35.00;;;;;;5066064;28;20458;-83
2023/04/19 12:00:06;;;;;;;2.97;2.63;;;18.40;34.80;;;;;;5067035;28;20541;-83
2023/04/19 12:02:40;;;;;;;4.43;3.50;;;18.60;34.30;;;;;;5093337;27;20474;-84
2023/04/19 12:05:08;;;;;;;6.77;3.40;;;18.40;32.90;;;;;;5070395;28;20481;-84
2023/04/19 12:07:36;;;;;;;3.33;3.00;;;18.40;34.40;;;;;;5093128;27;21095;-83
2023/04/19 12:10:10;;;;;;;6.73;3.80;;;18.60;31.60;;;;;;5076390;28;20845;-85
2023/04/19 12:12:38;;;;;;;4.10;3.50;;;18.60;33.10;;;;;;5093001;28;20458;-84
2023/04/19 12:15:06;;;;;;;4.90;4.40;;;18.90;31.30;;;;;;5077608;28;20513;-84
2023/04/19 12:17:33;;;;;;;4.73;3.03;;;19.10;32.60;;;;;;5095744;27;20474;-85
2023/04/19 12:20:00;;;;;;;2.87;2.37;;;19.50;33.60;;;;;;5075332;28;20454;-85
2023/04/19 12:22:27;;;;;;;4.43;2.37;;;19.60;29.40;;;;;;5076955;27;21019;-84
2023/04/19 12:24:55;;;;;;;2.27;2.07;;;19.40;30.00;;;;;;5092230;27;20502;-83
2023/04/19 12:27:24;;;;;;;2.30;2.10;;;19.40;29.50;;;;;;5089628;28;20443;-85
2023/04/19 12:29:51;;;;;;;2.43;2.13;;;19.50;29.40;;;;;;5065729;28;20452;-84
2023/04/19 12:32:18;;;;;;;3.80;2.77;;;19.30;28.10;;;;;;5091672;28;20469;-82
2023/04/19 12:34:45;;;;;;;2.37;2.10;;;19.50;28.80;;;;;;5093490;27;20918;-83
2023/04/19 12:37:12;;;;;;;5.60;2.33;;;19.50;27.60;;;;;;5093421;27;20528;-87
2023/04/19 12:39:39;;;;;;;2.80;1.90;;;19.40;27.30;;;;;;5085802;28;20952;-82
2023/04/19 12:42:06;;;;;;;3.10;1.80;;;19.60;27.60;;;;;;5074911;28;20546;-81
2023/04/19 12:44:34;;;;;;;2.80;1.90;;;19.50;26.20;;;;;;5090820;28;20468;-83
2023/04/19 12:47:01;;;;;;;5.83;1.83;;;19.70;26.40;;;;;;5093174;28;20774;-82
2023/04/19 12:49:29;;;;;;;3.33;1.83;;;19.70;27.40;;;;;;5105917;27;20483;-83
2023/04/19 12:51:56;;;;;;;3.57;1.93;;;19.80;27.40;;;;;;5075154;28;20472;-83